CheckWX is a tool to help pilots better visualize weather data.  It is not intended as a substitute for an official pre-flight weather briefing.

12:01:11 UTC

EGLL TAF
London Heathrow Airport
London, United Kingdom
TAF EGLL 041059Z 0412/0518 19010KT 9999 SCT040 BECMG 0417/0420 13010KT PROB30 TEMPO 0512/0518 16015G25KT

Apr-4@
12:00 UTC

Apr-4 @ 12:00 UTC

Apr-4@
17:00 UTC

Apr-4 @ 17:00 UTC

TAF EGLL 041059Z 0412/0518 19010KT 9999 SCT040

Expired

Wind
  • 190° at 10 KTS
Cloud Levels
  • Scattered at 4,000' AGL

Apr-4@
17:00 UTC

Apr-4 @ 17:00 UTC

Apr-5@
18:00 UTC

Apr-5 @ 18:00 UTC

BECMG 0417/0420 13010KT

Becoming

Becoming Conditions expected by Sat, Apr 4, 2020 @ 20:00 UTC

Wind
  • 130° at 10 KTS
Cloud Levels
  • Scattered at 4,000' AGL

Apr-5@
12:00 UTC

Apr-5 @ 12:00 UTC

Apr-5@
18:00 UTC

Apr-5 @ 18:00 UTC

PROB30 TEMPO 0512/0518 16015G25KT

Temporary - 30% Likelihood

Temporary - 30% Likelihood during this time.

Wind
  • 160° at 15 KTS
  • {Gusting to 25 KTS
Cloud Levels